sensor_id;sensor_type;location;lat;lon;timestamp;pressure;altitude;pressure_sealevel;temperature;humidity
44457;BME280;30159;49.316;8.558;2023-02-15T00:01:27;101973.78;;;1.68;100.00
44457;BME280;30159;49.316;8.558;2023-02-15T00:03:55;101984.22;;;1.69;100.00
44457;BME280;30159;49.316;8.558;2023-02-15T00:06:22;101982.25;;;1.48;100.00
44457;BME280;30159;49.316;8.558;2023-02-15T00:08:49;101971.31;;;1.43;100.00
44457;BME280;30159;49.316;8.558;2023-02-15T00:11:17;101974.22;;;1.57;100.00
44457;BME280;30159;49.316;8.558;2023-02-15T00:14:05;101973.19;;;1.58;100.00
44457;BME280;30159;49.316;8.558;2023-02-15T00:16:32;101969.28;;;1.68;100.00
44457;BME280;30159;49.316;8.558;2023-02-15T00:19:00;101964.84;;;1.61;100.00
44457;BME280;30159;49.316;8.558;2023-02-15T00:21:27;101965.88;;;1.75;100.00
44457;BME280;30159;49.316;8.558;2023-02-15T00:23:54;101966.34;;;1.78;100.00
44457;BME280;30159;49.316;8.558;2023-02-15T00:26:21;101968.53;;;1.75;100.00
44457;BME280;30159;49.316;8.558;2023-02-15T00:28:47;101908.44;;;1.51;100.00
44457;BME280;30159;49.316;8.558;2023-02-15T00:31:14;101959.53;;;1.61;100.00
44457;BME280;30159;49.316;8.558;2023-02-15T00:33:40;101964.78;;;1.84;100.00
44457;BME280;30159;49.316;8.558;2023-02-15T00:36:09;101970.56;;;1.87;100.00
44457;BME280;30159;49.316;8.558;2023-02-15T00:38:37;101869.91;;;1.17;100.00
44457;BME280;30159;49.316;8.558;2023-02-15T00:41:05;101887.88;;;1.30;100.00
44457;BME280;30159;49.316;8.558;2023-02-15T00:43:32;101952.56;;;1.60;100.00
44457;BME280;30159;49.316;8.558;2023-02-15T00:46:00;101944.75;;;1.43;100.00
44457;BME280;30159;49.316;8.558;2023-02-15T00:48:26;101876.63;;;0.90;100.00
44457;BME280;30159;49.316;8.558;2023-02-15T00:50:54;101945.84;;;1.49;100.00
44457;BME280;30159;49.316;8.558;2023-02-15T00:53:23;101953.00;;;1.48;100.00
44457;BME280;30159;49.316;8.558;2023-02-15T00:55:49;101954.06;;;1.39;100.00
44457;BME280;30159;49.316;8.558;2023-02-15T00:58:16;101933.88;;;1.30;100.00
44457;BME280;30159;49.316;8.558;2023-02-15T01:00:44;101949.03;;;1.44;100.00
44457;BME280;30159;49.316;8.558;2023-02-15T01:03:11;101946.69;;;1.50;100.00
44457;BME280;30159;49.316;8.558;2023-02-15T01:05:38;101935.75;;;1.44;100.00
44457;BME280;30159;49.316;8.558;2023-02-15T01:08:05;101942.91;;;1.44;100.00
44457;BME280;30159;49.316;8.558;2023-02-15T01:10:35;101878.22;;;0.99;100.00
44457;BME280;30159;49.316;8.558;2023-02-15T01:13:02;101909.53;;;1.26;100.00
44457;BME280;30159;49.316;8.558;2023-02-15T01:15:29;101942.84;;;1.52;100.00
44457;BME280;30159;49.316;8.558;2023-02-15T01:17:55;101934.13;;;1.43;100.00
44457;BME280;30159;49.316;8.558;2023-02-15T01:20:24;101945.03;;;1.48;100.00
44457;BME280;30159;49.316;8.558;2023-02-15T01:22:52;101939.00;;;1.55;100.00
44457;BME280;30159;49.316;8.558;2023-02-15T01:25:20;101942.03;;;1.66;100.00
44457;BME280;30159;49.316;8.558;2023-02-15T01:27:48;101939.22;;;1.68;100.00
44457;BME280;30159;49.316;8.558;2023-02-15T01:30:15;101941.31;;;1.73;100.00
44457;BME280;30159;49.316;8.558;2023-02-15T01:32:42;101942.03;;;1.81;100.00
44457;BME280;30159;49.316;8.558;2023-02-15T01:35:09;101957.66;;;1.84;100.00
44457;BME280;30159;49.316;8.558;2023-02-15T01:37:36;101950.28;;;1.86;100.00
44457;BME280;30159;49.316;8.558;2023-02-15T01:40:03;101924.34;;;1.74;100.00
44457;BME280;30159;49.316;8.558;2023-02-15T01:42:31;101934.97;;;1.88;100.00
44457;BME280;30159;49.316;8.558;2023-02-15T01:45:00;101938.66;;;1.87;100.00
44457;BME280;30159;49.316;8.558;2023-02-15T01:47:33;101929.75;;;1.80;100.00
44457;BME280;30159;49.316;8.558;2023-02-15T01:50:07;101925.19;;;1.89;100.00
44457;BME280;30159;49.316;8.558;2023-02-15T01:52:35;101919.84;;;1.89;100.00
44457;BME280;30159;49.316;8.558;2023-02-15T01:55:04;101916.81;;;2.07;100.00
44457;BME280;30159;49.316;8.558;2023-02-15T01:57:32;101925.53;;;2.01;100.00
44457;BME280;30159;49.316;8.558;2023-02-15T02:00:02;101908.16;;;2.05;100.00
44457;BME280;30159;49.316;8.558;2023-02-15T02:02:30;101923.41;;;2.11;100.00
44457;BME280;30159;49.316;8.558;2023-02-15T02:04:58;101916.81;;;2.07;100.00
44457;BME280;30159;49.316;8.558;2023-02-15T02:07:32;101826.47;;;1.69;100.00
44457;BME280;30159;49.316;8.558;2023-02-15T02:09:59;101910.53;;;2.29;100.00
44457;BME280;30159;49.316;8.558;2023-02-15T02:12:27;101904.75;;;2.26;100.00
44457;BME280;30159;49.316;8.558;2023-02-15T02:14:54;101896.06;;;2.17;100.00
44457;BME280;30159;49.316;8.558;2023-02-15T02:17:30;101906.16;;;2.07;100.00
44457;BME280;30159;49.316;8.558;2023-02-15T02:23:23;101905.59;;;2.11;100.00
44457;BME280;30159;49.316;8.558;2023-02-15T02:26:18;101896.78;;;2.11;100.00
44457;BME280;30159;49.316;8.558;2023-02-15T02:29:18;101895.50;;;2.07;100.00
44457;BME280;30159;49.316;8.558;2023-02-15T02:32:17;101892.59;;;2.02;100.00
44457;BME280;30159;49.316;8.558;2023-02-15T02:34:56;101894.88;;;2.05;100.00
44457;BME280;30159;49.316;8.558;2023-02-15T02:37:30;101894.97;;;1.97;100.00
44457;BME280;30159;49.316;8.558;2023-02-15T02:40:05;101892.50;;;1.95;100.00
44457;BME280;30159;49.316;8.558;2023-02-15T02:42:36;101892.59;;;2.02;100.00
44457;BME280;30159;49.316;8.558;2023-02-15T02:45:07;101889.00;;;2.09;100.00
44457;BME280;30159;49.316;8.558;2023-02-15T02:47:38;101879.81;;;2.12;100.00
44457;BME280;30159;49.316;8.558;2023-02-15T02:50:14;101878.34;;;2.24;100.00
44457;BME280;30159;49.316;8.558;2023-02-15T02:52:42;101870.78;;;2.28;100.00
44457;BME280;30159;49.316;8.558;2023-02-15T02:55:13;101829.41;;;1.89;100.00
44457;BME280;30159;49.316;8.558;2023-02-15T02:57:47;101865.97;;;2.02;100.00
44457;BME280;30159;49.316;8.558;2023-02-15T03:00:19;101868.88;;;2.22;100.00
44457;BME280;30159;49.316;8.558;2023-02-15T03:02:49;101865.13;;;2.16;100.00
44457;BME280;30159;49.316;8.558;2023-02-15T03:05:21;101824.09;;;1.89;100.00
44457;BME280;30159;49.316;8.558;2023-02-15T03:07:51;101863.31;;;2.02;100.00
44457;BME280;30159;49.316;8.558;2023-02-15T03:10:22;101860.28;;;2.05;100.00
44457;BME280;30159;49.316;8.558;2023-02-15T03:12:50;101860.63;;;2.17;100.00
44457;BME280;30159;49.316;8.558;2023-02-15T03:15:20;101816.78;;;1.98;100.00
44457;BME280;30159;49.316;8.558;2023-02-15T03:17:50;101862.16;;;2.26;100.00
44457;BME280;30159;49.316;8.558;2023-02-15T03:20:24;101852.03;;;2.36;100.00
44457;BME280;30159;49.316;8.558;2023-02-15T03:23:01;101861.50;;;2.39;100.00
44457;BME280;30159;49.316;8.558;2023-02-15T03:29:12;101856.47;;;2.29;100.00
44457;BME280;30159;49.316;8.558;2023-02-15T03:32:23;101863.56;;;2.22;100.00
44457;BME280;30159;49.316;8.558;2023-02-15T03:35:25;101864.53;;;2.36;100.00
44457;BME280;30159;49.316;8.558;2023-02-15T05:19:10;101832.78;;;3.33;100.00
44457;BME280;30159;49.316;8.558;2023-02-15T05:21:36;101834.41;;;3.34;100.00
44457;BME280;30159;49.316;8.558;2023-02-15T05:24:03;101828.63;;;3.31;100.00
44457;BME280;30159;49.316;8.558;2023-02-15T05:26:50;101826.59;;;3.33;100.00
44457;BME280;30159;49.316;8.558;2023-02-15T05:29:34;101826.38;;;3.28;100.00
44457;BME280;30159;49.316;8.558;2023-02-15T05:32:00;101809.69;;;3.12;100.00
44457;BME280;30159;49.316;8.558;2023-02-15T05:34:28;101836.22;;;3.27;100.00
44457;BME280;30159;49.316;8.558;2023-02-15T05:36:55;101828.63;;;3.31;100.00
44457;BME280;30159;49.316;8.558;2023-02-15T05:39:21;101833.78;;;3.32;100.00
44457;BME280;30159;49.316;8.558;2023-02-15T05:41:48;101821.22;;;3.26;100.00
44457;BME280;30159;49.316;8.558;2023-02-15T05:44:15;101819.78;;;3.24;100.00
44457;BME280;30159;49.316;8.558;2023-02-15T05:46:41;101812.94;;;3.14;100.00
44457;BME280;30159;49.316;8.558;2023-02-15T05:49:07;101835.59;;;3.25;100.00
44457;BME280;30159;49.316;8.558;2023-02-15T05:51:35;101834.38;;;3.28;100.00
44457;BME280;30159;49.316;8.558;2023-02-15T05:54:02;101838.06;;;3.27;100.00
44457;BME280;30159;49.316;8.558;2023-02-15T05:56:28;101841.38;;;3.29;100.00
44457;BME280;30159;49.316;8.558;2023-02-15T05:58:55;101837.50;;;3.31;100.00
44457;BME280;30159;49.316;8.558;2023-02-15T06:01:21;101844.28;;;3.34;100.00
44457;BME280;30159;49.316;8.558;2023-02-15T06:03:48;101837.72;;;3.36;100.00
44457;BME280;30159;49.316;8.558;2023-02-15T06:06:15;101837.72;;;3.36;100.00
44457;BME280;30159;49.316;8.558;2023-02-15T06:08:43;101841.16;;;3.30;100.00
44457;BME280;30159;49.316;8.558;2023-02-15T06:11:10;101838.44;;;3.24;100.00
44457;BME280;30159;49.316;8.558;2023-02-15T06:13:36;101842.97;;;3.23;100.00
44457;BME280;30159;49.316;8.558;2023-02-15T06:16:03;101850.13;;;3.23;100.00
44457;BME280;30159;49.316;8.558;2023-02-15T06:18:30;101850.78;;;3.25;100.00
44457;BME280;30159;49.316;8.558;2023-02-15T06:20:56;101852.75;;;3.16;100.00
44457;BME280;30159;49.316;8.558;2023-02-15T06:23:23;101849.91;;;3.17;100.00
44457;BME280;30159;49.316;8.558;2023-02-15T06:25:51;101847.81;;;3.13;100.00
44457;BME280;30159;49.316;8.558;2023-02-15T06:28:17;101841.56;;;2.99;100.00
44457;BME280;30159;49.316;8.558;2023-02-15T06:30:44;101856.41;;;3.08;100.00
44457;BME280;30159;49.316;8.558;2023-02-15T06:33:10;101815.81;;;2.85;100.00
44457;BME280;30159;49.316;8.558;2023-02-15T06:35:37;101868.44;;;3.04;100.00
44457;BME280;30159;49.316;8.558;2023-02-15T06:38:03;101826.66;;;2.83;100.00
44457;BME280;30159;49.316;8.558;2023-02-15T06:40:30;101869.31;;;3.11;100.00
44457;BME280;30159;49.316;8.558;2023-02-15T06:42:58;101862.00;;;2.92;100.00
44457;BME280;30159;49.316;8.558;2023-02-15T06:45:24;101880.72;;;2.99;100.00
44457;BME280;30159;49.316;8.558;2023-02-15T06:47:51;101878.34;;;2.89;100.00
44457;BME280;30159;49.316;8.558;2023-02-15T06:50:18;101880.97;;;3.04;100.00
44457;BME280;30159;49.316;8.558;2023-02-15T06:52:44;101873.09;;;2.95;100.00
44457;BME280;30159;49.316;8.558;2023-02-15T06:55:11;101882.28;;;2.93;100.00
44457;BME280;30159;49.316;8.558;2023-02-15T06:57:37;101871.28;;;2.96;100.00
44457;BME280;30159;49.316;8.558;2023-02-15T07:00:07;101872.31;;;3.02;100.00
44457;BME280;30159;49.316;8.558;2023-02-15T07:02:34;101876.22;;;2.99;100.00
44457;BME280;30159;49.316;8.558;2023-02-15T07:05:01;101877.19;;;2.98;100.00
44457;BME280;30159;49.316;8.558;2023-02-15T07:07:27;101873.94;;;2.96;100.00
44457;BME280;30159;49.316;8.558;2023-02-15T07:09:54;101879.81;;;3.13;100.00
44457;BME280;30159;49.316;8.558;2023-02-15T07:12:20;101878.88;;;2.99;100.00
44457;BME280;30159;49.316;8.558;2023-02-15T07:15:05;101877.41;;;2.97;100.00
44457;BME280;30159;49.316;8.558;2023-02-15T07:17:34;101878.88;;;2.99;100.00
44457;BME280;30159;49.316;8.558;2023-02-15T07:20:00;101869.09;;;3.06;100.00
44457;BME280;30159;49.316;8.558;2023-02-15T07:22:27;101883.28;;;3.13;100.00
44457;BME280;30159;49.316;8.558;2023-02-15T07:24:53;101887.59;;;3.14;100.00
44457;BME280;30159;49.316;8.558;2023-02-15T07:27:20;101894.41;;;3.17;100.00
44457;BME280;30159;49.316;8.558;2023-02-15T07:29:47;101889.38;;;3.29;100.00
44457;BME280;30159;49.316;8.558;2023-02-15T07:32:13;101879.47;;;3.23;100.00
44457;BME280;30159;49.316;8.558;2023-02-15T07:34:41;101886.88;;;3.27;100.00
44457;BME280;30159;49.316;8.558;2023-02-15T07:37:08;101873.72;;;3.26;100.00
44457;BME280;30159;49.316;8.558;2023-02-15T07:39:34;101878.31;;;3.32;100.00
44457;BME280;30159;49.316;8.558;2023-02-15T07:42:01;101873.84;;;3.39;100.00
44457;BME280;30159;49.316;8.558;2023-02-15T07:44:27;101873.88;;;3.46;100.00
44457;BME280;30159;49.316;8.558;2023-02-15T07:46:54;101863.47;;;3.23;100.00
44457;BME280;30159;49.316;8.558;2023-02-15T07:49:20;101867.22;;;3.35;100.00
44457;BME280;30159;49.316;8.558;2023-02-15T07:51:48;101842.28;;;3.14;100.00
44457;BME280;30159;49.316;8.558;2023-02-15T07:54:14;101860.28;;;3.34;100.00
44457;BME280;30159;49.316;8.558;2023-02-15T07:56:41;101862.69;;;3.29;100.00
44457;BME280;30159;49.316;8.558;2023-02-15T07:59:08;101872.72;;;3.27;100.00
44457;BME280;30159;49.316;8.558;2023-02-15T08:01:36;101874.13;;;3.23;100.00
44457;BME280;30159;49.316;8.558;2023-02-15T08:04:05;101838.25;;;2.97;100.00
44457;BME280;30159;49.316;8.558;2023-02-15T08:06:34;101863.88;;;3.20;100.00
44457;BME280;30159;49.316;8.558;2023-02-15T08:09:04;101873.97;;;3.31;100.00
44457;BME280;30159;49.316;8.558;2023-02-15T08:11:33;101863.88;;;3.26;100.00
44457;BME280;30159;49.316;8.558;2023-02-15T08:14:03;101879.13;;;3.32;100.00
44457;BME280;30159;49.316;8.558;2023-02-15T08:16:32;101823.44;;;2.88;100.00
44457;BME280;30159;49.316;8.558;2023-02-15T08:19:01;101877.47;;;3.31;100.00
44457;BME280;30159;49.316;8.558;2023-02-15T08:21:29;101819.72;;;3.10;100.00
44457;BME280;30159;49.316;8.558;2023-02-15T08:23:57;101865.03;;;3.38;100.00
44457;BME280;30159;49.316;8.558;2023-02-15T08:26:26;101852.50;;;3.39;100.00
44457;BME280;30159;49.316;8.558;2023-02-15T08:28:54;101856.56;;;3.35;100.00
44457;BME280;30159;49.316;8.558;2023-02-15T08:31:21;101856.63;;;3.42;100.00
44457;BME280;30159;49.316;8.558;2023-02-15T08:33:49;101858.28;;;3.49;100.00
44457;BME280;30159;49.316;8.558;2023-02-15T08:36:17;101858.47;;;3.41;100.00
44457;BME280;30159;49.316;8.558;2023-02-15T08:38:45;101856.97;;;3.32;100.00
44457;BME280;30159;49.316;8.558;2023-02-15T08:41:13;101855.75;;;3.34;100.00
44457;BME280;30159;49.316;8.558;2023-02-15T08:43:42;101859.44;;;3.33;100.00
44457;BME280;30159;49.316;8.558;2023-02-15T08:46:10;101850.78;;;3.25;100.00
44457;BME280;30159;49.316;8.558;2023-02-15T08:48:37;101858.19;;;3.29;100.00
44457;BME280;30159;49.316;8.558;2023-02-15T08:51:06;101849.38;;;3.29;100.00
44457;BME280;30159;49.316;8.558;2023-02-15T08:53:33;101847.81;;;3.41;100.00
44457;BME280;30159;49.316;8.558;2023-02-15T08:56:00;101845.41;;;3.53;100.00
44457;BME280;30159;49.316;8.558;2023-02-15T08:58:26;101852.22;;;3.62;100.00
44457;BME280;30159;49.316;8.558;2023-02-15T09:00:55;101852.19;;;3.55;100.00
44457;BME280;30159;49.316;8.558;2023-02-15T09:03:22;101848.03;;;3.46;100.00
44457;BME280;30159;49.316;8.558;2023-02-15T09:05:48;101846.13;;;3.40;100.00
44457;BME280;30159;49.316;8.558;2023-02-15T09:08:15;101845.53;;;3.38;100.00
44457;BME280;30159;49.316;8.558;2023-02-15T09:10:41;101844.72;;;3.44;100.00
44457;BME280;30159;49.316;8.558;2023-02-15T09:13:08;101832.81;;;3.40;100.00
44457;BME280;30159;49.316;8.558;2023-02-15T09:15:34;101840.44;;;3.43;100.00
44457;BME280;30159;49.316;8.558;2023-02-15T09:18:03;101835.47;;;3.33;100.00
44457;BME280;30159;49.316;8.558;2023-02-15T09:20:31;101835.06;;;3.36;100.00
44457;BME280;30159;49.316;8.558;2023-02-15T09:22:58;101840.25;;;3.51;100.00
44457;BME280;30159;49.316;8.558;2023-02-15T09:25:25;101839.31;;;3.66;100.00
44457;BME280;30159;49.316;8.558;2023-02-15T09:27:52;101839.97;;;3.74;100.00
44457;BME280;30159;49.316;8.558;2023-02-15T09:30:19;101831.34;;;3.72;100.00
44457;BME280;30159;49.316;8.558;2023-02-15T09:32:45;101822.06;;;3.62;100.00
44457;BME280;30159;49.316;8.558;2023-02-15T09:35:14;101823.31;;;3.31;100.00
44457;BME280;30159;49.316;8.558;2023-02-15T09:37:41;101813.53;;;3.45;100.00
44457;BME280;30159;49.316;8.558;2023-02-15T09:40:07;101821.53;;;3.45;100.00
44457;BME280;30159;49.316;8.558;2023-02-15T09:42:47;101824.81;;;3.40;100.00
44457;BME280;30159;49.316;8.558;2023-02-15T09:45:27;101819.72;;;3.45;100.00
44457;BME280;30159;49.316;8.558;2023-02-15T09:48:07;101831.13;;;3.67;100.00
44457;BME280;30159;49.316;8.558;2023-02-15T09:50:44;101827.28;;;3.83;100.00
44457;BME280;30159;49.316;8.558;2023-02-15T09:53:35;101826.25;;;3.84;100.00
44457;BME280;30159;49.316;8.558;2023-02-15T09:56:08;101832.59;;;3.76;100.00
44457;BME280;30159;49.316;8.558;2023-02-15T09:58:42;101830.53;;;3.72;100.00
44457;BME280;30159;49.316;8.558;2023-02-15T10:01:18;101794.31;;;3.56;100.00
44457;BME280;30159;49.316;8.558;2023-02-15T10:04:02;101838.78;;;3.84;100.00
44457;BME280;30159;49.316;8.558;2023-02-15T10:06:39;101819.47;;;3.82;100.00
44457;BME280;30159;49.316;8.558;2023-02-15T10:09:32;101826.00;;;3.72;100.00
44457;BME280;30159;49.316;8.558;2023-02-15T10:12:36;101838.97;;;3.82;100.00
44457;BME280;30159;49.316;8.558;2023-02-15T10:15:19;101828.56;;;4.00;100.00
44457;BME280;30159;49.316;8.558;2023-02-15T10:18:01;101827.94;;;3.98;100.00
44457;BME280;30159;49.316;8.558;2023-02-15T10:20:41;101824.50;;;4.05;100.00
44457;BME280;30159;49.316;8.558;2023-02-15T10:23:28;101829.06;;;4.17;100.00
44457;BME280;30159;49.316;8.558;2023-02-15T10:26:05;101780.16;;;3.55;100.00
44457;BME280;30159;49.316;8.558;2023-02-15T10:28:42;101838.41;;;3.93;100.00
44457;BME280;30159;49.316;8.558;2023-02-15T10:31:22;101845.41;;;3.94;100.00
44457;BME280;30159;49.316;8.558;2023-02-15T10:34:06;101836.84;;;4.12;100.00
44457;BME280;30159;49.316;8.558;2023-02-15T10:36:46;101832.19;;;4.34;100.00
44457;BME280;30159;49.316;8.558;2023-02-15T10:39:21;101835.09;;;4.53;100.00
44457;BME280;30159;49.316;8.558;2023-02-15T10:41:54;101834.06;;;4.54;100.00
44457;BME280;30159;49.316;8.558;2023-02-15T10:44:48;101825.81;;;4.42;100.00
44457;BME280;30159;49.316;8.558;2023-02-15T10:47:34;101780.56;;;4.14;100.00
44457;BME280;30159;49.316;8.558;2023-02-15T10:50:13;101824.59;;;4.51;100.00
44457;BME280;30159;49.316;8.558;2023-02-15T10:52:54;101827.84;;;4.33;100.00
44457;BME280;30159;49.316;8.558;2023-02-15T10:55:37;101825.63;;;4.43;100.00
44457;BME280;30159;49.316;8.558;2023-02-15T10:58:13;101819.69;;;4.55;100.00
44457;BME280;30159;49.316;8.558;2023-02-15T11:00:45;101762.47;;;4.09;100.00
44457;BME280;30159;49.316;8.558;2023-02-15T11:03:26;101814.94;;;4.43;100.00
44457;BME280;30159;49.316;8.558;2023-02-15T11:06:03;101814.09;;;4.50;100.00
44457;BME280;30159;49.316;8.558;2023-02-15T11:08:34;101808.16;;;4.61;100.00
44457;BME280;30159;49.316;8.558;2023-02-15T11:11:05;101784.31;;;4.73;100.00
44457;BME280;30159;49.316;8.558;2023-02-15T11:13:36;101800.78;;;4.90;100.00
44457;BME280;30159;49.316;8.558;2023-02-15T11:16:07;101795.63;;;5.01;100.00
44457;BME280;30159;49.316;8.558;2023-02-15T11:18:39;101744.03;;;4.74;100.00
44457;BME280;30159;49.316;8.558;2023-02-15T11:21:12;101790.47;;;5.00;100.00
44457;BME280;30159;49.316;8.558;2023-02-15T11:23:43;101795.44;;;4.83;100.00
44457;BME280;30159;49.316;8.558;2023-02-15T11:26:15;101789.25;;;4.89;100.00
44457;BME280;30159;49.316;8.558;2023-02-15T11:28:46;101668.00;;;4.17;100.00
44457;BME280;30159;49.316;8.558;2023-02-15T11:31:17;101779.38;;;4.96;100.00
44457;BME280;30159;49.316;8.558;2023-02-15T11:33:47;101776.91;;;5.01;100.00
44457;BME280;30159;49.316;8.558;2023-02-15T11:36:18;101771.75;;;5.13;100.00
44457;BME280;30159;49.316;8.558;2023-02-15T11:38:48;101777.25;;;5.32;100.00
44457;BME280;30159;49.316;8.558;2023-02-15T11:41:20;101764.06;;;5.43;100.00
44457;BME280;30159;49.316;8.558;2023-02-15T11:43:53;101723.94;;;5.37;100.00
44457;BME280;30159;49.316;8.558;2023-02-15T11:46:22;101765.22;;;5.54;100.00
44457;BME280;30159;49.316;8.558;2023-02-15T11:48:49;101757.47;;;5.46;100.00
44457;BME280;30159;49.316;8.558;2023-02-15T11:51:17;101754.13;;;5.57;100.00
44457;BME280;30159;49.316;8.558;2023-02-15T11:53:45;101702.78;;;5.22;100.00
44457;BME280;30159;49.316;8.558;2023-02-15T11:56:14;101742.81;;;5.55;100.00
44457;BME280;30159;49.316;8.558;2023-02-15T11:58:45;101745.09;;;5.45;100.00
44457;BME280;30159;49.316;8.558;2023-02-15T12:01:16;101748.63;;;5.45;100.00
44457;BME280;30159;49.316;8.558;2023-02-15T12:03:47;101734.81;;;5.48;100.00
44457;BME280;30159;49.316;8.558;2023-02-15T12:06:23;101740.53;;;5.52;100.00
44457;BME280;30159;49.316;8.558;2023-02-15T12:08:55;101739.34;;;5.48;100.00
44457;BME280;30159;49.316;8.558;2023-02-15T12:11:31;101733.75;;;5.56;100.00
44457;BME280;30159;49.316;8.558;2023-02-15T12:14:02;101726.00;;;5.80;100.00
44457;BME280;30159;49.316;8.558;2023-02-15T12:16:34;101589.28;;;5.11;100.00
44457;BME280;30159;49.316;8.558;2023-02-15T12:19:13;101723.44;;;5.98;100.00
44457;BME280;30159;49.316;8.558;2023-02-15T12:21:49;101721.72;;;6.10;100.00
44457;BME280;30159;49.316;8.558;2023-02-15T12:24:19;101717.66;;;6.01;100.00
44457;BME280;30159;49.316;8.558;2023-02-15T12:26:56;101719.22;;;6.16;100.00
44457;BME280;30159;49.316;8.558;2023-02-15T12:29:27;101719.88;;;6.36;100.00
44457;BME280;30159;49.316;8.558;2023-02-15T12:31:56;101711.91;;;6.54;98.52
44457;BME280;30159;49.316;8.558;2023-02-15T12:34:26;101709.66;;;6.26;98.16
44457;BME280;30159;49.316;8.558;2023-02-15T12:36:57;101707.59;;;6.28;99.25
44457;BME280;30159;49.316;8.558;2023-02-15T12:39:26;101701.72;;;6.38;97.16
44457;BME280;30159;49.316;8.558;2023-02-15T12:42:03;101697.31;;;6.50;97.86
44457;BME280;30159;49.316;8.558;2023-02-15T12:44:33;101698.28;;;6.56;96.78
44457;BME280;30159;49.316;8.558;2023-02-15T12:47:02;101697.78;;;6.66;98.26
44457;BME280;30159;49.316;8.558;2023-02-15T12:49:29;101704.34;;;6.70;96.67
44457;BME280;30159;49.316;8.558;2023-02-15T12:51:58;101693.91;;;6.80;97.25
44457;BME280;30159;49.316;8.558;2023-02-15T12:54:31;101687.63;;;6.93;95.06
44457;BME280;30159;49.316;8.558;2023-02-15T12:57:13;101692.00;;;6.87;95.68
44457;BME280;30159;49.316;8.558;2023-02-15T12:59:48;101677.81;;;6.80;95.29
44457;BME280;30159;49.316;8.558;2023-02-15T13:02:23;101684.91;;;6.74;95.71
44457;BME280;30159;49.316;8.558;2023-02-15T13:04:50;101687.53;;;6.81;96.21
44457;BME280;30159;49.316;8.558;2023-02-15T13:07:17;101688.34;;;6.82;95.80
44457;BME280;30159;49.316;8.558;2023-02-15T13:09:44;101697.06;;;6.95;96.25
44457;BME280;30159;49.316;8.558;2023-02-15T13:12:18;101679.56;;;7.11;95.81
44457;BME280;30159;49.316;8.558;2023-02-15T13:14:47;101668.56;;;7.31;93.97
44457;BME280;30159;49.316;8.558;2023-02-15T13:17:17;101674.63;;;7.27;94.46
44457;BME280;30159;49.316;8.558;2023-02-15T13:19:47;101673.94;;;7.31;93.79
44457;BME280;30159;49.316;8.558;2023-02-15T13:22:19;101660.19;;;7.09;92.28
44457;BME280;30159;49.316;8.558;2023-02-15T13:24:48;101635.97;;;6.97;93.66
44457;BME280;30159;49.316;8.558;2023-02-15T13:27:18;101649.81;;;7.13;94.60
44457;BME280;30159;49.316;8.558;2023-02-15T13:29:50;101651.91;;;7.11;94.19
44457;BME280;30159;49.316;8.558;2023-02-15T13:32:25;101642.91;;;7.05;93.76
44457;BME280;30159;49.316;8.558;2023-02-15T13:34:54;101643.72;;;7.06;93.42
44457;BME280;30159;49.316;8.558;2023-02-15T13:37:37;101619.44;;;7.01;93.55
44457;BME280;30159;49.316;8.558;2023-02-15T13:40:12;101635.97;;;6.97;94.61
44457;BME280;30159;49.316;8.558;2023-02-15T13:42:41;101631.88;;;6.95;95.84
44457;BME280;30159;49.316;8.558;2023-02-15T13:45:23;101629.13;;;6.83;94.08
44457;BME280;30159;49.316;8.558;2023-02-15T13:48:00;101489.22;;;5.76;95.44
44457;BME280;30159;49.316;8.558;2023-02-15T13:50:50;101612.56;;;6.49;96.58
44457;BME280;30159;49.316;8.558;2023-02-15T13:56:29;101618.53;;;5.76;100.00
44457;BME280;30159;49.316;8.558;2023-02-15T13:59:12;101612.88;;;5.59;100.00
44457;BME280;30159;49.316;8.558;2023-02-15T14:01:50;101614.09;;;5.63;100.00
44457;BME280;30159;49.316;8.558;2023-02-15T14:04:44;101608.47;;;5.72;100.00
44457;BME280;30159;49.316;8.558;2023-02-15T14:07:33;101579.13;;;5.58;100.00
44457;BME280;30159;49.316;8.558;2023-02-15T14:10:21;101599.44;;;5.66;100.00
44457;BME280;30159;49.316;8.558;2023-02-15T14:13:02;101600.22;;;5.48;100.00
44457;BME280;30159;49.316;8.558;2023-02-15T14:15:39;101466.75;;;4.63;100.00
44457;BME280;30159;49.316;8.558;2023-02-15T14:18:20;101601.03;;;5.48;100.00
44457;BME280;30159;49.316;8.558;2023-02-15T14:21:03;101605.28;;;5.56;100.00
44457;BME280;30159;49.316;8.558;2023-02-15T14:23:42;101599.75;;;5.51;100.00
44457;BME280;30159;49.316;8.558;2023-02-15T14:26:15;101611.03;;;5.60;100.00
44457;BME280;30159;49.316;8.558;2023-02-15T14:28:51;101555.81;;;5.34;100.00
44457;BME280;30159;49.316;8.558;2023-02-15T14:31:36;101598.72;;;5.52;100.00
44457;BME280;30159;49.316;8.558;2023-02-15T14:34:16;101594.84;;;5.48;100.00
44457;BME280;30159;49.316;8.558;2023-02-15T14:36:44;101588.16;;;5.32;100.00
44457;BME280;30159;49.316;8.558;2023-02-15T14:39:18;101580.09;;;5.39;100.00
44457;BME280;30159;49.316;8.558;2023-02-15T14:42:13;101596.66;;;5.54;100.00
44457;BME280;30159;49.316;8.558;2023-02-15T14:44:43;101593.56;;;5.57;100.00
44457;BME280;30159;49.316;8.558;2023-02-15T14:47:19;101576.97;;;5.42;100.00
44457;BME280;30159;49.316;8.558;2023-02-15T14:49:50;101584.34;;;5.46;100.00
44457;BME280;30159;49.316;8.558;2023-02-15T14:52:16;101580.75;;;5.59;100.00
44457;BME280;30159;49.316;8.558;2023-02-15T14:54:57;101580.88;;;5.71;100.00
44457;BME280;30159;49.316;8.558;2023-02-15T14:57:26;101564.31;;;5.56;100.00
44457;BME280;30159;49.316;8.558;2023-02-15T14:59:54;101575.03;;;5.56;100.00
44457;BME280;30159;49.316;8.558;2023-02-15T15:02:25;101577.75;;;5.49;100.00
44457;BME280;30159;49.316;8.558;2023-02-15T15:05:00;101574.63;;;5.52;100.00